sensor_id;sensor_type;location;lat;lon;timestamp;P1;P2;P0
47081;PMS5003;33066;49.296;14.470;2022-11-14T00:00:59;34;31;
47081;PMS5003;33066;49.296;14.470;2022-11-14T00:03:24;44;41;
47081;PMS5003;33066;49.296;14.470;2022-11-14T00:05:50;34;28;
47081;PMS5003;33066;49.296;14.470;2022-11-14T00:08:16;48;35;
47081;PMS5003;33066;49.296;14.470;2022-11-14T00:10:40;43;38;
47081;PMS5003;33066;49.296;14.470;2022-11-14T00:13:06;43;37;
47081;PMS5003;33066;49.296;14.470;2022-11-14T00:15:31;44;36;
47081;PMS5003;33066;49.296;14.470;2022-11-14T00:17:56;39;29;
47081;PMS5003;33066;49.296;14.470;2022-11-14T00:20:21;38;29;
47081;PMS5003;33066;49.296;14.470;2022-11-14T00:22:46;36;35;
47081;PMS5003;33066;49.296;14.470;2022-11-14T00:25:12;49;38;
47081;PMS5003;33066;49.296;14.470;2022-11-14T00:27:38;44;38;
47081;PMS5003;33066;49.296;14.470;2022-11-14T00:30:04;48;42;
47081;PMS5003;33066;49.296;14.470;2022-11-14T00:32:29;35;31;
47081;PMS5003;33066;49.296;14.470;2022-11-14T00:34:54;49;39;
47081;PMS5003;33066;49.296;14.470;2022-11-14T00:37:20;32;28;
47081;PMS5003;33066;49.296;14.470;2022-11-14T00:39:45;44;42;
47081;PMS5003;33066;49.296;14.470;2022-11-14T00:42:11;37;32;
47081;PMS5003;33066;49.296;14.470;2022-11-14T00:44:36;43;37;
47081;PMS5003;33066;49.296;14.470;2022-11-14T00:47:02;36;31;
47081;PMS5003;33066;49.296;14.470;2022-11-14T00:49:27;39;33;
47081;PMS5003;33066;49.296;14.470;2022-11-14T00:51:52;35;31;
47081;PMS5003;33066;49.296;14.470;2022-11-14T00:54:18;35;28;
47081;PMS5003;33066;49.296;14.470;2022-11-14T00:56:44;44;37;
47081;PMS5003;33066;49.296;14.470;2022-11-14T00:59:09;44;37;
47081;PMS5003;33066;49.296;14.470;2022-11-14T01:01:35;42;36;
47081;PMS5003;33066;49.296;14.470;2022-11-14T01:04:01;35;29;
47081;PMS5003;33066;49.296;14.470;2022-11-14T01:06:26;37;34;
47081;PMS5003;33066;49.296;14.470;2022-11-14T01:08:51;39;34;
47081;PMS5003;33066;49.296;14.470;2022-11-14T01:11:18;40;35;
47081;PMS5003;33066;49.296;14.470;2022-11-14T01:13:43;34;34;
47081;PMS5003;33066;49.296;14.470;2022-11-14T01:16:08;38;29;
47081;PMS5003;33066;49.296;14.470;2022-11-14T01:18:34;37;30;
47081;PMS5003;33066;49.296;14.470;2022-11-14T01:21:02;36;31;
47081;PMS5003;33066;49.296;14.470;2022-11-14T01:23:25;39;33;
47081;PMS5003;33066;49.296;14.470;2022-11-14T01:25:50;38;31;
47081;PMS5003;33066;49.296;14.470;2022-11-14T01:28:16;45;36;
47081;PMS5003;33066;49.296;14.470;2022-11-14T01:30:41;41;35;
47081;PMS5003;33066;49.296;14.470;2022-11-14T01:33:07;35;30;
47081;PMS5003;33066;49.296;14.470;2022-11-14T01:35:33;44;36;
47081;PMS5003;33066;49.296;14.470;2022-11-14T01:37:58;42;35;
47081;PMS5003;33066;49.296;14.470;2022-11-14T01:40:24;43;35;
47081;PMS5003;33066;49.296;14.470;2022-11-14T01:47:40;36;33;
47081;PMS5003;33066;49.296;14.470;2022-11-14T01:50:08;35;33;
47081;PMS5003;33066;49.296;14.470;2022-11-14T01:52:32;47;41;
47081;PMS5003;33066;49.296;14.470;2022-11-14T01:54:56;43;34;
47081;PMS5003;33066;49.296;14.470;2022-11-14T01:57:26;44;33;
47081;PMS5003;33066;49.296;14.470;2022-11-14T01:59:48;43;36;
47081;PMS5003;33066;49.296;14.470;2022-11-14T02:02:14;44;38;
47081;PMS5003;33066;49.296;14.470;2022-11-14T02:04:37;51;37;
47081;PMS5003;33066;49.296;14.470;2022-11-14T02:07:02;52;37;
47081;PMS5003;33066;49.296;14.470;2022-11-14T02:09:29;42;37;
47081;PMS5003;33066;49.296;14.470;2022-11-14T02:11:53;46;39;
47081;PMS5003;33066;49.296;14.470;2022-11-14T02:14:19;39;29;
47081;PMS5003;33066;49.296;14.470;2022-11-14T02:16:44;41;33;
47081;PMS5003;33066;49.296;14.470;2022-11-14T02:19:10;55;38;
47081;PMS5003;33066;49.296;14.470;2022-11-14T02:21:35;40;36;
47081;PMS5003;33066;49.296;14.470;2022-11-14T02:24:01;37;30;
47081;PMS5003;33066;49.296;14.470;2022-11-14T02:26:26;38;34;
47081;PMS5003;33066;49.296;14.470;2022-11-14T02:28:52;48;40;
47081;PMS5003;33066;49.296;14.470;2022-11-14T02:31:18;45;42;
47081;PMS5003;33066;49.296;14.470;2022-11-14T02:33:43;43;37;
47081;PMS5003;33066;49.296;14.470;2022-11-14T02:36:08;43;35;
47081;PMS5003;33066;49.296;14.470;2022-11-14T02:38:34;42;36;
47081;PMS5003;33066;49.296;14.470;2022-11-14T02:40:59;35;31;
47081;PMS5003;33066;49.296;14.470;2022-11-14T02:43:25;38;35;
47081;PMS5003;33066;49.296;14.470;2022-11-14T02:45:50;30;27;
47081;PMS5003;33066;49.296;14.470;2022-11-14T02:48:15;36;32;
47081;PMS5003;33066;49.296;14.470;2022-11-14T02:50:42;40;34;
47081;PMS5003;33066;49.296;14.470;2022-11-14T02:53:07;34;33;
47081;PMS5003;33066;49.296;14.470;2022-11-14T02:55:33;33;31;
47081;PMS5003;33066;49.296;14.470;2022-11-14T02:57:58;51;40;
47081;PMS5003;33066;49.296;14.470;2022-11-14T03:00:24;33;31;
47081;PMS5003;33066;49.296;14.470;2022-11-14T03:02:51;40;34;
47081;PMS5003;33066;49.296;14.470;2022-11-14T03:05:14;39;34;
47081;PMS5003;33066;49.296;14.470;2022-11-14T03:07:40;39;29;
47081;PMS5003;33066;49.296;14.470;2022-11-14T03:10:06;36;33;
47081;PMS5003;33066;49.296;14.470;2022-11-14T03:12:31;42;33;
47081;PMS5003;33066;49.296;14.470;2022-11-14T03:14:56;51;44;
47081;PMS5003;33066;49.296;14.470;2022-11-14T03:17:22;51;46;
47081;PMS5003;33066;49.296;14.470;2022-11-14T03:19:47;42;40;
47081;PMS5003;33066;49.296;14.470;2022-11-14T03:22:12;37;32;
47081;PMS5003;33066;49.296;14.470;2022-11-14T03:24:38;45;36;
47081;PMS5003;33066;49.296;14.470;2022-11-14T03:27:03;42;39;
47081;PMS5003;33066;49.296;14.470;2022-11-14T03:29:29;38;33;
47081;PMS5003;33066;49.296;14.470;2022-11-14T03:31:55;43;37;
47081;PMS5003;33066;49.296;14.470;2022-11-14T03:34:20;40;33;
47081;PMS5003;33066;49.296;14.470;2022-11-14T03:36:45;48;40;
47081;PMS5003;33066;49.296;14.470;2022-11-14T03:39:11;36;34;
47081;PMS5003;33066;49.296;14.470;2022-11-14T03:41:37;39;35;
47081;PMS5003;33066;49.296;14.470;2022-11-14T03:44:02;48;47;
47081;PMS5003;33066;49.296;14.470;2022-11-14T03:46:27;52;43;
47081;PMS5003;33066;49.296;14.470;2022-11-14T03:48:53;34;32;
47081;PMS5003;33066;49.296;14.470;2022-11-14T03:51:18;39;38;
47081;PMS5003;33066;49.296;14.470;2022-11-14T03:53:43;45;40;
47081;PMS5003;33066;49.296;14.470;2022-11-14T03:56:09;41;36;
47081;PMS5003;33066;49.296;14.470;2022-11-14T03:58:34;39;35;
47081;PMS5003;33066;49.296;14.470;2022-11-14T04:00:59;56;47;
47081;PMS5003;33066;49.296;14.470;2022-11-14T04:03:25;47;38;
47081;PMS5003;33066;49.296;14.470;2022-11-14T04:05:51;42;38;
47081;PMS5003;33066;49.296;14.470;2022-11-14T04:08:17;52;45;
47081;PMS5003;33066;49.296;14.470;2022-11-14T04:13:00;40;37;
47081;PMS5003;33066;49.296;14.470;2022-11-14T04:15:25;41;29;
47081;PMS5003;33066;49.296;14.470;2022-11-14T04:17:51;52;49;
47081;PMS5003;33066;49.296;14.470;2022-11-14T04:20:16;40;35;
47081;PMS5003;33066;49.296;14.470;2022-11-14T04:22:42;50;46;
47081;PMS5003;33066;49.296;14.470;2022-11-14T04:25:08;46;36;
47081;PMS5003;33066;49.296;14.470;2022-11-14T04:27:33;45;36;
47081;PMS5003;33066;49.296;14.470;2022-11-14T04:29:59;35;28;
47081;PMS5003;33066;49.296;14.470;2022-11-14T04:32:24;43;34;
47081;PMS5003;33066;49.296;14.470;2022-11-14T04:34:49;43;35;
47081;PMS5003;33066;49.296;14.470;2022-11-14T04:37:15;43;37;
47081;PMS5003;33066;49.296;14.470;2022-11-14T04:39:40;35;34;
47081;PMS5003;33066;49.296;14.470;2022-11-14T04:42:06;51;45;
47081;PMS5003;33066;49.296;14.470;2022-11-14T04:44:31;39;35;
47081;PMS5003;33066;49.296;14.470;2022-11-14T04:46:57;36;28;
47081;PMS5003;33066;49.296;14.470;2022-11-14T04:49:22;53;44;
47081;PMS5003;33066;49.296;14.470;2022-11-14T04:51:47;48;37;
47081;PMS5003;33066;49.296;14.470;2022-11-14T04:54:13;47;46;
47081;PMS5003;33066;49.296;14.470;2022-11-14T04:56:38;61;49;
47081;PMS5003;33066;49.296;14.470;2022-11-14T04:59:04;49;42;
47081;PMS5003;33066;49.296;14.470;2022-11-14T05:01:30;57;51;
47081;PMS5003;33066;49.296;14.470;2022-11-14T05:03:56;36;34;
47081;PMS5003;33066;49.296;14.470;2022-11-14T05:06:22;26;26;
47081;PMS5003;33066;49.296;14.470;2022-11-14T05:08:47;43;36;
47081;PMS5003;33066;49.296;14.470;2022-11-14T05:11:12;37;33;
47081;PMS5003;33066;49.296;14.470;2022-11-14T05:13:37;41;39;
47081;PMS5003;33066;49.296;14.470;2022-11-14T05:16:03;36;32;
47081;PMS5003;33066;49.296;14.470;2022-11-14T05:18:28;40;34;
47081;PMS5003;33066;49.296;14.470;2022-11-14T05:20:56;36;34;
47081;PMS5003;33066;49.296;14.470;2022-11-14T05:23:20;42;34;
47081;PMS5003;33066;49.296;14.470;2022-11-14T05:25:45;39;32;
47081;PMS5003;33066;49.296;14.470;2022-11-14T05:28:10;27;26;
47081;PMS5003;33066;49.296;14.470;2022-11-14T05:30:36;33;28;
47081;PMS5003;33066;49.296;14.470;2022-11-14T05:33:02;26;24;
47081;PMS5003;33066;49.296;14.470;2022-11-14T05:35:27;39;30;
47081;PMS5003;33066;49.296;14.470;2022-11-14T05:37:52;28;28;
47081;PMS5003;33066;49.296;14.470;2022-11-14T05:40:18;37;32;
47081;PMS5003;33066;49.296;14.470;2022-11-14T05:42:43;36;30;
47081;PMS5003;33066;49.296;14.470;2022-11-14T05:45:09;42;32;
47081;PMS5003;33066;49.296;14.470;2022-11-14T05:47:34;42;31;
47081;PMS5003;33066;49.296;14.470;2022-11-14T05:49:59;42;31;
47081;PMS5003;33066;49.296;14.470;2022-11-14T05:52:25;29;26;
47081;PMS5003;33066;49.296;14.470;2022-11-14T05:54:50;30;24;
47081;PMS5003;33066;49.296;14.470;2022-11-14T05:57:16;39;34;
47081;PMS5003;33066;49.296;14.470;2022-11-14T05:59:41;31;24;
47081;PMS5003;33066;49.296;14.470;2022-11-14T06:02:06;45;32;
47081;PMS5003;33066;49.296;14.470;2022-11-14T06:04:31;32;28;
47081;PMS5003;33066;49.296;14.470;2022-11-14T06:06:56;32;29;
47081;PMS5003;33066;49.296;14.470;2022-11-14T06:09:22;26;21;
47081;PMS5003;33066;49.296;14.470;2022-11-14T06:11:47;29;26;
47081;PMS5003;33066;49.296;14.470;2022-11-14T06:14:12;38;32;
47081;PMS5003;33066;49.296;14.470;2022-11-14T06:16:38;31;25;
47081;PMS5003;33066;49.296;14.470;2022-11-14T06:19:04;30;27;
47081;PMS5003;33066;49.296;14.470;2022-11-14T06:21:29;30;29;
47081;PMS5003;33066;49.296;14.470;2022-11-14T06:23:55;32;28;
47081;PMS5003;33066;49.296;14.470;2022-11-14T06:26:21;39;31;
47081;PMS5003;33066;49.296;14.470;2022-11-14T06:28:45;26;21;
47081;PMS5003;33066;49.296;14.470;2022-11-14T06:31:11;34;31;
47081;PMS5003;33066;49.296;14.470;2022-11-14T06:33:36;33;29;
47081;PMS5003;33066;49.296;14.470;2022-11-14T06:36:03;41;34;
47081;PMS5003;33066;49.296;14.470;2022-11-14T06:38:29;24;23;
47081;PMS5003;33066;49.296;14.470;2022-11-14T06:40:52;30;24;
47081;PMS5003;33066;49.296;14.470;2022-11-14T06:43:18;31;26;
47081;PMS5003;33066;49.296;14.470;2022-11-14T06:45:43;31;28;
47081;PMS5003;33066;49.296;14.470;2022-11-14T06:48:08;36;29;
47081;PMS5003;33066;49.296;14.470;2022-11-14T06:50:34;31;24;
47081;PMS5003;33066;49.296;14.470;2022-11-14T06:52:59;29;21;
47081;PMS5003;33066;49.296;14.470;2022-11-14T06:55:25;36;33;
47081;PMS5003;33066;49.296;14.470;2022-11-14T06:57:51;22;22;
47081;PMS5003;33066;49.296;14.470;2022-11-14T07:00:16;49;36;
47081;PMS5003;33066;49.296;14.470;2022-11-14T07:02:44;37;31;
47081;PMS5003;33066;49.296;14.470;2022-11-14T07:05:07;25;24;
47081;PMS5003;33066;49.296;14.470;2022-11-14T07:07:32;131;101;
47081;PMS5003;33066;49.296;14.470;2022-11-14T07:09:57;57;43;
47081;PMS5003;33066;49.296;14.470;2022-11-14T07:12:22;43;40;
47081;PMS5003;33066;49.296;14.470;2022-11-14T07:14:47;60;52;
47081;PMS5003;33066;49.296;14.470;2022-11-14T07:17:13;90;80;
47081;PMS5003;33066;49.296;14.470;2022-11-14T07:19:38;60;58;
47081;PMS5003;33066;49.296;14.470;2022-11-14T07:22:03;281;240;
47081;PMS5003;33066;49.296;14.470;2022-11-14T07:24:28;185;155;
47081;PMS5003;33066;49.296;14.470;2022-11-14T07:26:54;429;321;
47081;PMS5003;33066;49.296;14.470;2022-11-14T07:29:19;697;570;
47081;PMS5003;33066;49.296;14.470;2022-11-14T07:31:44;663;554;
47081;PMS5003;33066;49.296;14.470;2022-11-14T07:34:10;327;286;
47081;PMS5003;33066;49.296;14.470;2022-11-14T07:36:35;121;111;
47081;PMS5003;33066;49.296;14.470;2022-11-14T07:39:01;175;155;
47081;PMS5003;33066;49.296;14.470;2022-11-14T07:41:27;253;216;
47081;PMS5003;33066;49.296;14.470;2022-11-14T07:43:52;122;113;
47081;PMS5003;33066;49.296;14.470;2022-11-14T07:46:17;72;70;
47081;PMS5003;33066;49.296;14.470;2022-11-14T07:48:43;102;87;
47081;PMS5003;33066;49.296;14.470;2022-11-14T07:51:09;281;242;
47081;PMS5003;33066;49.296;14.470;2022-11-14T07:53:34;75;72;
47081;PMS5003;33066;49.296;14.470;2022-11-14T07:56:01;320;261;
47081;PMS5003;33066;49.296;14.470;2022-11-14T07:58:24;503;464;
47081;PMS5003;33066;49.296;14.470;2022-11-14T08:00:50;164;154;
47081;PMS5003;33066;49.296;14.470;2022-11-14T08:03:16;345;270;
47081;PMS5003;33066;49.296;14.470;2022-11-14T08:05:41;809;573;
47081;PMS5003;33066;49.296;14.470;2022-11-14T08:08:07;818;607;
47081;PMS5003;33066;49.296;14.470;2022-11-14T08:10:32;320;235;
47081;PMS5003;33066;49.296;14.470;2022-11-14T08:12:58;2114;1313;
47081;PMS5003;33066;49.296;14.470;2022-11-14T08:15:23;869;606;
47081;PMS5003;33066;49.296;14.470;2022-11-14T08:17:48;999;691;
47081;PMS5003;33066;49.296;14.470;2022-11-14T08:20:14;2770;1638;
47081;PMS5003;33066;49.296;14.470;2022-11-14T08:22:39;738;510;
47081;PMS5003;33066;49.296;14.470;2022-11-14T08:25:05;3142;1799;
47081;PMS5003;33066;49.296;14.470;2022-11-14T08:27:30;665;463;
47081;PMS5003;33066;49.296;14.470;2022-11-14T08:29:55;2519;1552;
47081;PMS5003;33066;49.296;14.470;2022-11-14T08:32:21;2090;1351;
47081;PMS5003;33066;49.296;14.470;2022-11-14T08:34:47;1216;856;
47081;PMS5003;33066;49.296;14.470;2022-11-14T08:37:12;684;496;
47081;PMS5003;33066;49.296;14.470;2022-11-14T08:39:37;958;699;
47081;PMS5003;33066;49.296;14.470;2022-11-14T08:42:02;687;493;
47081;PMS5003;33066;49.296;14.470;2022-11-14T08:44:27;270;222;
47081;PMS5003;33066;49.296;14.470;2022-11-14T08:46:53;721;518;
47081;PMS5003;33066;49.296;14.470;2022-11-14T08:49:19;649;510;
47081;PMS5003;33066;49.296;14.470;2022-11-14T08:51:44;918;679;
47081;PMS5003;33066;49.296;14.470;2022-11-14T08:54:10;234;193;
47081;PMS5003;33066;49.296;14.470;2022-11-14T08:56:35;124;108;
47081;PMS5003;33066;49.296;14.470;2022-11-14T08:59:01;61;61;
47081;PMS5003;33066;49.296;14.470;2022-11-14T09:01:26;108;100;
47081;PMS5003;33066;49.296;14.470;2022-11-14T09:03:52;124;118;
47081;PMS5003;33066;49.296;14.470;2022-11-14T09:06:17;45;41;
47081;PMS5003;33066;49.296;14.470;2022-11-14T09:08:43;48;41;
47081;PMS5003;33066;49.296;14.470;2022-11-14T09:11:08;45;38;
47081;PMS5003;33066;49.296;14.470;2022-11-14T09:13:33;64;60;
47081;PMS5003;33066;49.296;14.470;2022-11-14T09:15:59;44;33;
47081;PMS5003;33066;49.296;14.470;2022-11-14T09:18:24;30;23;
47081;PMS5003;33066;49.296;14.470;2022-11-14T09:20:49;38;27;
47081;PMS5003;33066;49.296;14.470;2022-11-14T09:23:15;29;24;
47081;PMS5003;33066;49.296;14.470;2022-11-14T09:25:40;27;22;
47081;PMS5003;33066;49.296;14.470;2022-11-14T09:28:06;34;28;
47081;PMS5003;33066;49.296;14.470;2022-11-14T09:30:31;23;20;
47081;PMS5003;33066;49.296;14.470;2022-11-14T09:32:57;25;22;
47081;PMS5003;33066;49.296;14.470;2022-11-14T09:35:22;58;55;
47081;PMS5003;33066;49.296;14.470;2022-11-14T09:37:47;45;40;
47081;PMS5003;33066;49.296;14.470;2022-11-14T09:40:12;28;25;
47081;PMS5003;33066;49.296;14.470;2022-11-14T09:42:45;61;55;
47081;PMS5003;33066;49.296;14.470;2022-11-14T09:45:04;27;23;
47081;PMS5003;33066;49.296;14.470;2022-11-14T09:47:29;24;21;
47081;PMS5003;33066;49.296;14.470;2022-11-14T09:49:55;50;49;
47081;PMS5003;33066;49.296;14.470;2022-11-14T09:52:24;32;30;
47081;PMS5003;33066;49.296;14.470;2022-11-14T09:54:46;27;23;
47081;PMS5003;33066;49.296;14.470;2022-11-14T09:57:13;20;16;
47081;PMS5003;33066;49.296;14.470;2022-11-14T09:59:35;79;70;
47081;PMS5003;33066;49.296;14.470;2022-11-14T10:02:03;36;33;
47081;PMS5003;33066;49.296;14.470;2022-11-14T10:04:29;29;24;
47081;PMS5003;33066;49.296;14.470;2022-11-14T10:06:53;19;19;
47081;PMS5003;33066;49.296;14.470;2022-11-14T10:09:23;35;30;
47081;PMS5003;33066;49.296;14.470;2022-11-14T10:11:43;21;19;
47081;PMS5003;33066;49.296;14.470;2022-11-14T10:16:35;28;21;
47081;PMS5003;33066;49.296;14.470;2022-11-14T10:19:02;24;20;
47081;PMS5003;33066;49.296;14.470;2022-11-14T10:21:28;42;40;
47081;PMS5003;33066;49.296;14.470;2022-11-14T10:23:51;38;30;
47081;PMS5003;33066;49.296;14.470;2022-11-14T10:26:18;42;30;
47081;PMS5003;33066;49.296;14.470;2022-11-14T10:28:47;45;42;
47081;PMS5003;33066;49.296;14.470;2022-11-14T10:31:11;67;62;
47081;PMS5003;33066;49.296;14.470;2022-11-14T10:33:35;89;79;
47081;PMS5003;33066;49.296;14.470;2022-11-14T10:35:59;61;52;
47081;PMS5003;33066;49.296;14.470;2022-11-14T10:38:25;72;66;
47081;PMS5003;33066;49.296;14.470;2022-11-14T10:40:50;77;71;
47081;PMS5003;33066;49.296;14.470;2022-11-14T10:43:17;30;28;
47081;PMS5003;33066;49.296;14.470;2022-11-14T10:45:42;59;56;
47081;PMS5003;33066;49.296;14.470;2022-11-14T10:48:08;74;62;
47081;PMS5003;33066;49.296;14.470;2022-11-14T10:50:39;704;530;
47081;PMS5003;33066;49.296;14.470;2022-11-14T10:52:59;2504;1444;
47081;PMS5003;33066;49.296;14.470;2022-11-14T10:55:23;2508;1444;
47081;PMS5003;33066;49.296;14.470;2022-11-14T10:57:48;4403;2261;
47081;PMS5003;33066;49.296;14.470;2022-11-14T11:00:15;1714;1119;
47081;PMS5003;33066;49.296;14.470;2022-11-14T11:02:46;782;528;
47081;PMS5003;33066;49.296;14.470;2022-11-14T11:05:11;1095;733;
47081;PMS5003;33066;49.296;14.470;2022-11-14T11:07:30;2261;1251;
47081;PMS5003;33066;49.296;14.470;2022-11-14T11:09:57;486;324;
47081;PMS5003;33066;49.296;14.470;2022-11-14T11:12:21;666;490;
47081;PMS5003;33066;49.296;14.470;2022-11-14T11:14:46;3034;1743;
47081;PMS5003;33066;49.296;14.470;2022-11-14T11:17:17;1170;771;
47081;PMS5003;33066;49.296;14.470;2022-11-14T11:19:36;761;513;
47081;PMS5003;33066;49.296;14.470;2022-11-14T11:22:01;1300;863;
47081;PMS5003;33066;49.296;14.470;2022-11-14T11:24:31;172;140;
47081;PMS5003;33066;49.296;14.470;2022-11-14T11:29:18;1710;1172;
47081;PMS5003;33066;49.296;14.470;2022-11-14T11:34:09;2257;1532;
47081;PMS5003;33066;49.296;14.470;2022-11-14T11:36:35;2155;1470;
47081;PMS5003;33066;49.296;14.470;2022-11-14T11:38:59;166;141;
47081;PMS5003;33066;49.296;14.470;2022-11-14T11:41:26;557;445;
47081;PMS5003;33066;49.296;14.470;2022-11-14T11:43:50;2009;1463;
47081;PMS5003;33066;49.296;14.470;2022-11-14T11:46:15;1866;1347;
47081;PMS5003;33066;49.296;14.470;2022-11-14T11:48:41;362;298;
47081;PMS5003;33066;49.296;14.470;2022-11-14T11:51:11;486;413;
47081;PMS5003;33066;49.296;14.470;2022-11-14T11:53:33;352;294;
47081;PMS5003;33066;49.296;14.470;2022-11-14T11:55:59;81;73;
47081;PMS5003;33066;49.296;14.470;2022-11-14T11:58:24;223;189;
47081;PMS5003;33066;49.296;14.470;2022-11-14T12:00:50;191;177;
47081;PMS5003;33066;49.296;14.470;2022-11-14T12:03:15;136;124;
47081;PMS5003;33066;49.296;14.470;2022-11-14T12:05:43;58;58;
47081;PMS5003;33066;49.296;14.470;2022-11-14T12:08:07;31;29;
47081;PMS5003;33066;49.296;14.470;2022-11-14T12:10:31;24;24;
47081;PMS5003;33066;49.296;14.470;2022-11-14T12:13:03;34;30;
47081;PMS5003;33066;49.296;14.470;2022-11-14T12:15:23;28;25;
47081;PMS5003;33066;49.296;14.470;2022-11-14T12:20:24;21;21;
47081;PMS5003;33066;49.296;14.470;2022-11-14T12:22:44;26;22;
47081;PMS5003;33066;49.296;14.470;2022-11-14T12:27:34;65;58;
47081;PMS5003;33066;49.296;14.470;2022-11-14T12:32:24;38;37;
47081;PMS5003;33066;49.296;14.470;2022-11-14T12:34:46;29;27;
47081;PMS5003;33066;49.296;14.470;2022-11-14T12:37:14;33;30;
47081;PMS5003;33066;49.296;14.470;2022-11-14T12:39:36;54;54;
47081;PMS5003;33066;49.296;14.470;2022-11-14T12:42:02;33;28;
47081;PMS5003;33066;49.296;14.470;2022-11-14T12:44:31;31;28;
47081;PMS5003;33066;49.296;14.470;2022-11-14T12:51:48;28;25;
47081;PMS5003;33066;49.296;14.470;2022-11-14T12:56:43;87;79;
47081;PMS5003;33066;49.296;14.470;2022-11-14T12:59:11;72;70;
47081;PMS5003;33066;49.296;14.470;2022-11-14T13:01:32;66;63;
47081;PMS5003;33066;49.296;14.470;2022-11-14T13:03:55;29;28;
47081;PMS5003;33066;49.296;14.470;2022-11-14T13:06:18;35;34;
47081;PMS5003;33066;49.296;14.470;2022-11-14T13:08:47;36;34;
47081;PMS5003;33066;49.296;14.470;2022-11-14T13:13:33;25;22;
47081;PMS5003;33066;49.296;14.470;2022-11-14T13:15:59;59;56;
47081;PMS5003;33066;49.296;14.470;2022-11-14T13:18:25;55;51;
47081;PMS5003;33066;49.296;14.470;2022-11-14T13:25:41;163;142;
47081;PMS5003;33066;49.296;14.470;2022-11-14T13:32:57;30;29;
47081;PMS5003;33066;49.296;14.470;2022-11-14T13:35:25;39;32;
47081;PMS5003;33066;49.296;14.470;2022-11-14T13:37:53;48;45;
47081;PMS5003;33066;49.296;14.470;2022-11-14T13:40:15;46;43;
47081;PMS5003;33066;49.296;14.470;2022-11-14T13:42:43;28;23;
47081;PMS5003;33066;49.296;14.470;2022-11-14T13:45:15;35;31;
47081;PMS5003;33066;49.296;14.470;2022-11-14T13:47:37;24;21;
47081;PMS5003;33066;49.296;14.470;2022-11-14T13:49:58;210;184;
47081;PMS5003;33066;49.296;14.470;2022-11-14T13:52:20;47;43;
47081;PMS5003;33066;49.296;14.470;2022-11-14T13:54:46;31;28;
47081;PMS5003;33066;49.296;14.470;2022-11-14T13:57:12;38;34;
47081;PMS5003;33066;49.296;14.470;2022-11-14T13:59:40;33;30;
47081;PMS5003;33066;49.296;14.470;2022-11-14T14:04:33;58;53;
47081;PMS5003;33066;49.296;14.470;2022-11-14T14:06:56;37;34;
47081;PMS5003;33066;49.296;14.470;2022-11-14T14:09:21;27;24;
47081;PMS5003;33066;49.296;14.470;2022-11-14T14:11:48;33;27;
47081;PMS5003;33066;49.296;14.470;2022-11-14T14:14:14;66;56;
47081;PMS5003;33066;49.296;14.470;2022-11-14T14:16:38;61;55;
47081;PMS5003;33066;49.296;14.470;2022-11-14T14:19:02;24;22;
47081;PMS5003;33066;49.296;14.470;2022-11-14T14:21:30;23;23;
47081;PMS5003;33066;49.296;14.470;2022-11-14T14:23:52;24;24;
47081;PMS5003;33066;49.296;14.470;2022-11-14T14:26:20;35;32;
47081;PMS5003;33066;49.296;14.470;2022-11-14T14:28:44;36;36;
47081;PMS5003;33066;49.296;14.470;2022-11-14T14:31:09;38;34;
47081;PMS5003;33066;49.296;14.470;2022-11-14T14:33:38;26;20;
47081;PMS5003;33066;49.296;14.470;2022-11-14T14:35:58;35;32;
47081;PMS5003;33066;49.296;14.470;2022-11-14T14:38:24;30;28;
47081;PMS5003;33066;49.296;14.470;2022-11-14T14:40:49;17;16;
47081;PMS5003;33066;49.296;14.470;2022-11-14T14:45:43;27;26;
47081;PMS5003;33066;49.296;14.470;2022-11-14T14:48:11;47;45;
47081;PMS5003;33066;49.296;14.470;2022-11-14T14:50:32;22;22;
47081;PMS5003;33066;49.296;14.470;2022-11-14T14:52:57;23;22;
47081;PMS5003;33066;49.296;14.470;2022-11-14T14:55:22;25;23;
47081;PMS5003;33066;49.296;14.470;2022-11-14T14:57:46;27;26;
47081;PMS5003;33066;49.296;14.470;2022-11-14T15:00:16;41;26;
47081;PMS5003;33066;49.296;14.470;2022-11-14T15:02:37;29;22;
47081;PMS5003;33066;49.296;14.470;2022-11-14T15:05:02;33;26;
47081;PMS5003;33066;49.296;14.470;2022-11-14T15:07:27;22;20;
47081;PMS5003;33066;49.296;14.470;2022-11-14T15:09:54;22;21;
47081;PMS5003;33066;49.296;14.470;2022-11-14T15:12:19;24;22;
47081;PMS5003;33066;49.296;14.470;2022-11-14T15:14:44;30;27;
47081;PMS5003;33066;49.296;14.470;2022-11-14T15:17:10;27;26;
47081;PMS5003;33066;49.296;14.470;2022-11-14T15:19:36;28;26;
47081;PMS5003;33066;49.296;14.470;2022-11-14T15:22:01;40;32;
47081;PMS5003;33066;49.296;14.470;2022-11-14T15:24:26;35;30;
47081;PMS5003;33066;49.296;14.470;2022-11-14T15:26:52;31;29;
47081;PMS5003;33066;49.296;14.470;2022-11-14T15:29:18;26;23;
47081;PMS5003;33066;49.296;14.470;2022-11-14T15:31:44;35;27;
47081;PMS5003;33066;49.296;14.470;2022-11-14T15:36:33;35;33;
47081;PMS5003;33066;49.296;14.470;2022-11-14T15:39:00;41;37;
47081;PMS5003;33066;49.296;14.470;2022-11-14T15:41:24;51;44;
47081;PMS5003;33066;49.296;14.470;2022-11-14T15:43:49;62;58;
47081;PMS5003;33066;49.296;14.470;2022-11-14T15:48:39;49;47;
47081;PMS5003;33066;49.296;14.470;2022-11-14T15:51:04;61;52;
47081;PMS5003;33066;49.296;14.470;2022-11-14T15:53:30;114;84;
47081;PMS5003;33066;49.296;14.470;2022-11-14T15:55:55;100;90;
47081;PMS5003;33066;49.296;14.470;2022-11-14T15:58:21;98;90;
47081;PMS5003;33066;49.296;14.470;2022-11-14T16:00:47;106;92;
47081;PMS5003;33066;49.296;14.470;2022-11-14T16:03:13;107;81;
47081;PMS5003;33066;49.296;14.470;2022-11-14T16:05:38;136;118;
47081;PMS5003;33066;49.296;14.470;2022-11-14T16:08:04;114;91;
47081;PMS5003;33066;49.296;14.470;2022-11-14T16:10:29;200;168;
47081;PMS5003;33066;49.296;14.470;2022-11-14T16:12:54;140;119;
47081;PMS5003;33066;49.296;14.470;2022-11-14T16:15:20;72;65;
47081;PMS5003;33066;49.296;14.470;2022-11-14T16:17:45;178;132;
47081;PMS5003;33066;49.296;14.470;2022-11-14T16:20:12;83;68;
47081;PMS5003;33066;49.296;14.470;2022-11-14T16:22:36;117;95;
47081;PMS5003;33066;49.296;14.470;2022-11-14T16:25:01;137;112;
47081;PMS5003;33066;49.296;14.470;2022-11-14T16:27:27;117;96;
47081;PMS5003;33066;49.296;14.470;2022-11-14T16:29:52;91;77;
47081;PMS5003;33066;49.296;14.470;2022-11-14T16:32:17;78;62;